Terminal Aerodrome Forecast
Issued by NWS Cleveland, OH

Home | Current Version | Previous Version | Graphics & Text | Print | Product List | Glossary Off
Versions: 1 2 3 4 5 6 7 8 9 10 11 12 13 14 15

212
FTUS41 KCLE 261352 AAB
TAFERI
TAF AMD
KERI 261352Z 2614/2712 15007KT P6SM SCT025
      TEMPO 2614/2617 BKN025
     FM261700 09010KT P6SM SCT035
     FM270200 16011KT P6SM BKN250=

USA.gov is the U.S. government's official web portal to all federal, state and local government web resources and services.